Create Tblcommutelog Verified Points Advance Search
| # | Trip ID | Id Commuter | Trip Date | Trip Num | Current Lat | Current Lng | Delta Distance | Current Time | Activity | Activity Confidence | Current Speed | |
|---|---|---|---|---|---|---|---|---|---|---|---|---|
| 71181 | 260220_784718_16652718_1608 | 784718 | (not set) | (not set) | 39.144221036485 | -77.409841181299 | 30.6765 | 2026-02-20 16:58:53 | in_vehicle | 100 | 2.6420020206175 | |
| 71182 | 260220_785264_16653381_1551 | 785264 | (not set) | (not set) | 38.912097770397 | -77.475144379666 | 31.037 | 2026-02-20 16:58:54 | in_vehicle | 100 | 10.125439216072 | |
| 71183 | 260220_785997_16654252_1601 | 785997 | (not set) | (not set) | 39.307405148438 | -76.614578321643 | 40.0251 | 2026-02-20 16:58:54 | still | 33 | 2.2843706134273 | |
| 71184 | 260220_787174_16656765_1651 | 787174 | (not set) | (not set) | 38.916739744535 | -76.983414167526 | 6.8987 | 2026-02-20 16:58:54 | in_vehicle | 100 | 7.9885915581106 | |
| 71185 | 260220_773521_16640875_1610 | 773521 | (not set) | (not set) | 38.93197764066 | -78.05973891881 | 40.8563 | 2026-02-20 16:58:55 | in_vehicle | 100 | 7.7963646767459 | |
| 71186 | 260220_782599_16657299_1646 | 782599 | (not set) | (not set) | 39.052735125672 | -77.112473822936 | 0.9701 | 2026-02-20 16:58:54 | in_vehicle | 100 | -0.44703925898772 | |
| 71187 | 260220_782599_16657299_1646 | 782599 | (not set) | (not set) | 39.052735125672 | -77.112473822936 | 0.9701 | 2026-02-20 16:58:54 | in_vehicle | 100 | -0.44703925898772 | |
| 71188 | 260220_781130_16648802_1601 | 781130 | (not set) | (not set) | 39.135245678154 | -76.805885702607 | 21.6437 | 2026-02-20 16:58:56 | unknown | 100 | 9.9510939050667 | |
| 71189 | 260220_781130_16648802_1601 | 781130 | (not set) | (not set) | 39.135245678154 | -76.805885702607 | 21.6437 | 2026-02-20 16:58:56 | unknown | 100 | 9.9510939050667 | |
| 71190 | 260220_789307_16658135_1631 | 789307 | (not set) | (not set) | 39.0256825 | -77.1032943 | 13.3127 | 2026-02-20 16:58:58 | in_vehicle | 100 | 8.668091231772 | |
| 71191 | 260220_782599_16657299_1646 | 782599 | (not set) | (not set) | 39.048790967383 | -77.113351617007 | 1.5357 | 2026-02-20 16:58:58 | still | 33 | 6.5670067145297 | |
| 71192 | 260220_782599_16657299_1646 | 782599 | (not set) | (not set) | 39.048790967383 | -77.113351617007 | 1.5357 | 2026-02-20 16:58:58 | still | 33 | 6.5670067145297 | |
| 71193 | 260220_731669_16595792_1638 | 731669 | (not set) | (not set) | 38.901444794347 | -77.188064046156 | 6.0774 | 2026-02-20 16:59:00 | in_vehicle | 100 | 12.923904977335 | |
| 71194 | 260220_780832_0_1651 | 780832 | (not set) | (not set) | 38.890965637385 | -77.076073607859 | 2.2192 | 2026-02-20 16:59:01 | in_vehicle | 100 | 8.2568151135033 | |
| 71195 | 260220_656971_16502675_1624 | 656971 | (not set) | (not set) | 38.805086128123 | -77.502750983555 | 27.5366 | 2026-02-20 16:59:03 | in_vehicle | 100 | -0.44703925898772 | |
| 71196 | 260220_790364_16659368_1629 | 790364 | (not set) | (not set) | 39.284766987127 | -76.591433733076 | 1.2173 | 2026-02-20 16:59:04 | on_foot | 100 | 0.40233533308895 | |
| 71197 | 260220_786026_16654284_1602 | 786026 | (not set) | (not set) | 38.978576687644 | -76.931211874527 | 7.8927 | 2026-02-20 16:59:04 | on_bicycle | 100 | 2.767173013134 | |
| 71198 | 260220_786026_16654284_1602 | 786026 | (not set) | (not set) | 38.978576687644 | -76.931211874527 | 7.8927 | 2026-02-20 16:59:04 | on_bicycle | 100 | 2.767173013134 | |
| 71199 | 260220_753957_16653467_1640 | 753957 | (not set) | (not set) | 38.876702169895 | -77.009468348605 | 2.8495 | 2026-02-20 16:59:06 | in_vehicle | 100 | -0.44703925898772 | |
| 71200 | 260220_753957_16653467_1640 | 753957 | (not set) | (not set) | 38.876702169895 | -77.009468348605 | 2.8495 | 2026-02-20 16:59:06 | in_vehicle | 100 | -0.44703925898772 |